Flight Track Log - Related Links

Times and Time Zones

All times are in EDT time to prevent confusion due to time zone crossing. See the UPS2774 flight status page for this flight to view local times or setup timezone preferences in your user account.

Time Position Orientation Groundspeed Altitude Reporting Facility
EDT Latitude Longitude Course Direction KTS MPH feet Rate Location/Type
Mon 05:01:59 PM 38.1760 -85.7440 343° North 34 39  Level FlightAware ADS-B
Mon 05:02:25 PM 38.1800 -85.7450 349° North 34 39 161 Level FlightAware ADS-B
Mon 05:03:10 PM 38.1830 -85.7460 345° North 22 25 173 Level FlightAware ADS-B
Mon 05:03:36 PM 38.1850 -85.7460 360° North 25 29 199 Level FlightAware ADS-B
Mon 05:04:04 PM 38.1850 -85.7470 270° West 218 Level FlightAware ADS-B
Mon 05:04:48 PM 38.1850 -85.7480 270° West 19 22 243 Level FlightAware ADS-B
Mon 05:05:10 PM 38.1840 -85.7480 180° South 296 Level FlightAware ADS-B
Mon 05:07:00 PM 38.0667 -85.8211 270° West  Level FlightAware Approximate
Mon 05:07:42 PM 38.1830 -85.7470 270° West 63 72  Level FlightAware ADS-B
Mon 05:08:11 PM 38.1660 -85.7420 167° South 181 208 1,000 2,800 Climbing FlightAware ADS-B
Mon 05:08:27 PM 38.1520 -85.7330 153° Southeast 193 222 2,100 3,000 Climbing FlightAware ADS-B
Mon 05:08:39 PM 38.1440 -85.7240 138° Southeast 220 253 2,400 1,800 Climbing FlightAware ADS-B
Mon 05:09:07 PM 38.1270 -85.6880 121° Southeast 275 316 3,300 2,769 Climbing FlightAware ADS-B
Mon 05:09:31 PM 38.1120 -85.6530 119° Southeast 286 329 4,800 2,919 Climbing FlightAware ADS-B
Mon 05:09:44 PM 38.1020 -85.6380 130° Southeast 286 329 5,100 750 Climbing FlightAware ADS-B
Mon 05:09:55 PM 38.0890 -85.6300 154° Southeast 283 326 5,100  Level FlightAware ADS-B
Mon 05:10:11 PM 38.0680 -85.6270 174° South 278 320 5,100  Level FlightAware ADS-B
Mon 05:10:39 PM 38.0310 -85.6240 176° South 277 319 5,100  Level FlightAware ADS-B
Mon 05:11:08 PM 37.9970 -85.6210 176° South 278 320 5,100 1,034 Level FlightAware ADS-B
Mon 05:11:37 PM 37.9600 -85.6310 192° South 268 308 6,100 2,488 Climbing FlightAware ADS-B
Mon 05:11:49 PM 37.9510 -85.6460 233° Southwest 265 305 6,800 4,000 Climbing FlightAware ADS-B
Mon 05:12:19 PM 37.9280 -85.6860 234° Southwest 279 321 8,900 3,857 Climbing FlightAware ADS-B
Mon 05:12:59 PM 37.8950 -85.7390 232° Southwest 307 353 11,300 2,846 Climbing FlightAware ADS-B
Mon 05:13:37 PM 37.8590 -85.7970 232° Southwest 359 413 12,600 2,444 Climbing FlightAware ADS-B
Mon 05:14:20 PM 37.8100 -85.8720 230° Southwest 402 463 14,600 3,075 Climbing FlightAware ADS-B
Mon 05:14:57 PM 37.7660 -85.9410 231° Southwest 422 486 16,700 2,810 Climbing FlightAware ADS-B
Mon 05:15:39 PM 37.7130 -86.0240 231° Southwest 456 525 18,300 2,475 Climbing FlightAware ADS-B
Mon 05:16:17 PM 37.6670 -86.0950 231° Southwest 469 540 20,000 2,820 Climbing FlightAware ADS-B
Mon 05:17:19 PM 37.5740 -86.2400 231° Southwest 490 564 23,000 2,827 Climbing FlightAware ADS-B
Mon 05:18:01 PM 37.5120 -86.3350 231° Southwest 498 573 24,900 2,854 Climbing FlightAware ADS-B
Mon 05:18:41 PM 37.4540 -86.4250 231° Southwest 497 572 26,900 3,225 Climbing FlightAware ADS-B
Mon 05:19:21 PM 37.3970 -86.5130 231° Southwest 483 556 29,200 3,418 Climbing FlightAware ADS-B
Mon 05:20:00 PM 37.3430 -86.5950 230° Southwest 467 537 31,400 3,538 Climbing FlightAware ADS-B
Mon 05:20:39 PM 37.2900 -86.6760 231° Southwest 443 510 33,800 2,519 Climbing FlightAware ADS-B
Mon 05:21:21 PM 37.2360 -86.7580 230° Southwest 449 517 34,800 1,615 Climbing FlightAware ADS-B
Mon 05:21:57 PM 37.1890 -86.8300 231° Southwest 443 510 35,900 889 Climbing FlightAware ADS-B
Mon 05:22:42 PM 37.1320 -86.9170 231° Southwest 440 506 36,000 75 Climbing FlightAware ADS-B
Mon 05:23:17 PM 37.0860 -86.9870 231° Southwest 442 509 36,000  Level FlightAware ADS-B
Mon 05:24:03 PM 37.0260 -87.0770 230° Southwest 447 514 36,000  Level FlightAware ADS-B
Mon 05:24:43 PM 36.9730 -87.1580 231° Southwest 453 521 36,000  Level FlightAware ADS-B
Mon 05:25:26 PM 36.9140 -87.2470 230° Southwest 457 526 36,000  Level FlightAware ADS-B
Mon 05:26:06 PM 36.8580 -87.3290 230° Southwest 460 529 36,000  Level FlightAware ADS-B
Mon 05:26:46 PM 36.8040 -87.4110 231° Southwest 462 532 36,000 450 Level FlightAware ADS-B
Mon 05:27:26 PM 36.7500 -87.4910 230° Southwest 460 529 36,600 1,301 Climbing FlightAware ADS-B
Mon 05:28:09 PM 36.6930 -87.5760 230° Southwest 449 517 37,800 1,105 Climbing FlightAware ADS-B
Mon 05:28:42 PM 36.6490 -87.6420 230° Southwest 443 510 38,000 164 Climbing FlightAware ADS-B
Mon 05:29:22 PM 36.5960 -87.7200 230° Southwest 443 510 38,000  Level FlightAware ADS-B
Mon 05:30:06 PM 36.5370 -87.8080 230° Southwest 449 517 38,000  Level FlightAware ADS-B
Mon 05:30:48 PM 36.4810 -87.8900 230° Southwest 450 518 38,000  Level FlightAware ADS-B
Mon 05:31:34 PM 36.4200 -87.9800 230° Southwest 451 519 38,000  Level FlightAware ADS-B
Mon 05:32:12 PM 36.3690 -88.0550 230° Southwest 452 520 38,000  Level FlightAware ADS-B
Mon 05:32:54 PM 36.3110 -88.1390 229° Southwest 451 519 38,000  Level FlightAware ADS-B
Mon 05:33:31 PM 36.2630 -88.2100 230° Southwest 454 522 38,000  Level FlightAware ADS-B
Mon 05:34:20 PM 36.2060 -88.2920 229° Southwest 454 522 38,000  Level FlightAware ADS-B
Mon 05:34:56 PM 36.1640 -88.3520 229° Southwest 454 522 38,000  Level FlightAware ADS-B
Mon 05:35:40 PM 36.0840 -88.4700 230° Southwest 456 525 38,000  Level FlightAware ADS-B
Mon 05:36:28 PM 36.0270 -88.5520 229° Southwest 456 525 38,000  Level FlightAware ADS-B
Mon 05:37:04 PM 35.9850 -88.6120 229° Southwest 456 525 38,000  Level FlightAware ADS-B
Mon 05:37:40 PM 35.9430 -88.6720 229° Southwest 456 525 38,000  Level FlightAware ADS-B
Mon 05:38:26 PM 35.8880 -88.7490 229° Southwest 456 525 38,000  Level FlightAware ADS-B
Mon 05:39:02 PM 35.8460 -88.8090 229° Southwest 456 525 38,000  Level FlightAware ADS-B
Mon 05:39:50 PM 35.7900 -88.8890 229° Southwest 456 525 38,000  Level FlightAware ADS-B
Mon 05:40:26 PM 35.7470 -88.9490 229° Southwest 456 525 38,000  Level FlightAware ADS-B
Mon 05:41:14 PM 35.6910 -89.0290 229° Southwest 456 525 38,000  Level FlightAware ADS-B
Mon 05:41:50 PM 35.6480 -89.0890 229° Southwest 456 525 38,000  Level FlightAware ADS-B
Mon 05:42:26 PM 35.6060 -89.1490 229° Southwest 456 525 38,000  Level FlightAware ADS-B
Mon 05:43:27 PM 35.5340 -89.2500 229° Southwest 456 525 38,000  Level FlightAware ADS-B
Mon 05:44:03 PM 35.4920 -89.3100 229° Southwest 456 525 38,000  Level FlightAware ADS-B
Mon 05:44:52 PM 35.4340 -89.3920 229° Southwest 456 525 38,000  Level FlightAware ADS-B
Mon 05:45:26 PM 35.3940 -89.4480 229° Southwest 456 525 38,000  Level FlightAware ADS-B
Mon 05:45:56 PM 35.2247 -89.6961 229° Southwest 470 541 38,000  Level Memphis Center
Mon 05:46:56 PM 35.1292 -89.8086 224° Southwest 470 541 38,000  Level Memphis Center
Mon 05:47:56 PM 35.0189 -89.8931 212° Southwest 476 548 38,000  Level Memphis Center
Mon 05:48:56 PM 34.8983 -89.9797 211° Southwest 490 564 38,000  Level Memphis Center
Mon 05:49:56 PM 34.7817 -90.0561 208° Southwest 495 570 38,000  Level Memphis Center
Mon 05:50:56 PM 34.6669 -90.1375 210° Southwest 478 550 38,000  Level Memphis Center
Mon 05:51:56 PM 34.5544 -90.2158 210° Southwest 478 550 38,000  Level Memphis Center
Mon 05:52:56 PM 34.4522 -90.2867 210° Southwest 473 544 38,000  Level Memphis Center
Mon 05:53:56 PM 34.3397 -90.3647 210° Southwest 467 537 38,000  Level Memphis Center
Mon 05:54:56 PM 34.2250 -90.4450 210° Southwest 467 537 38,000  Level Memphis Center
Mon 05:55:56 PM 34.1100 -90.5203 208° Southwest 467 537 38,000  Level Memphis Center
Mon 05:56:56 PM 34.0014 -90.6103 214° Southwest 472 543 38,000  Level Memphis Center
Mon 05:57:56 PM 33.9050 -90.7150 222° Southwest 477 549 38,000  Level Memphis Center
Mon 05:58:56 PM 33.7983 -90.8272 221° Southwest 472 543 38,000  Level Memphis Center
Mon 05:59:56 PM 33.6997 -90.9289 221° Southwest 467 537 38,000  Level Memphis Center
Mon 06:00:56 PM 33.6011 -91.0306 221° Southwest 467 537 38,000  Level Memphis Center
Mon 06:01:56 PM 33.5025 -91.1344 221° Southwest 467 537 38,000  Level Memphis Center
Mon 06:02:56 PM 33.4036 -91.2331 220° Southwest 467 537 38,000  Level Memphis Center
Mon 06:03:56 PM 33.3047 -91.3367 221° Southwest 467 537 38,000  Level Memphis Center
Mon 06:05:37 PM 33.1428 -91.5006 220° Southwest 466 536 38,000  Level Houston Center
Mon 06:06:39 PM 33.0561 -91.5894 221° Southwest 463 533 38,000  Level Houston Center
Mon 06:07:41 PM 32.9389 -91.7089 221° Southwest 463 533 38,000  Level Houston Center
Mon 06:08:43 PM 32.8394 -91.8097 220° Southwest 462 532 38,000  Level Houston Center
Mon 06:09:44 PM 32.7436 -91.9072 221° Southwest 463 533 38,000  Level Houston Center
Mon 06:10:46 PM 32.6450 -92.0067 220° Southwest 466 536 38,000  Level Houston Center
Mon 06:11:48 PM 32.5417 -92.1108 220° Southwest 468 539 38,000  Level Houston Center
Mon 06:12:50 PM 32.4419 -92.2111 220° Southwest 472 543 38,000  Level Houston Center
Mon 06:13:51 PM 32.3414 -92.3119 220° Southwest 475 547 38,000  Level Houston Center
Mon 06:14:53 PM 32.2397 -92.4131 220° Southwest 478 550 38,000  Level Houston Center
Mon 06:15:55 PM 32.1181 -92.5342 220° Southwest 476 548 38,000 -49 Level Houston Center
Mon 06:16:56 PM 32.0169 -92.6344 220° Southwest 475 547 37,900 -49 Descending Houston Center
Mon 06:17:58 PM 31.9156 -92.7339 220° Southwest 474 545 37,900  Level Houston Center
Mon 06:19:00 PM 31.8139 -92.8325 220° Southwest 473 544 37,900  Level Houston Center
Mon 06:20:01 PM 31.7125 -92.9306 219° Southwest 473 544 37,900 -119 Level Houston Center
Mon 06:25:45 PM 31.1126 -93.5052 219° Southwest 479 551 37,100 -224 Descending FlightAware ADS-B
Mon 06:26:16 PM 31.0582 -93.5569 219° Southwest 482 555 36,500 -968 Descending FlightAware ADS-B
Mon 06:26:47 PM 31.0061 -93.6062 219° Southwest 479 551 36,100 -968 Descending FlightAware ADS-B
Mon 06:27:18 PM 30.9515 -93.6577 219° Southwest 478 550 35,500 -1,258 Descending FlightAware ADS-B
Mon 06:27:49 PM 30.8989 -93.7074 219° Southwest 471 542 34,800 -1,742 Descending FlightAware ADS-B
Mon 06:28:20 PM 30.8474 -93.7555 219° Southwest 459 528 33,700 -2,954 Descending FlightAware ADS-B
Mon 06:28:54 PM 30.7920 -93.8074 219° Southwest 455 524 31,600 -3,969 Descending FlightAware ADS-B
Mon 06:29:25 PM 30.7408 -93.8560 219° Southwest 455 524 29,400 -4,235 Descending FlightAware ADS-B
Mon 06:30:02 PM 30.6797 -93.9133 219° Southwest 458 527 26,800 -3,971 Descending FlightAware ADS-B
Mon 06:30:33 PM 30.6296 -93.9605 219° Southwest 442 509 24,900 -3,581 Descending FlightAware ADS-B
Mon 06:31:04 PM 30.5809 -94.0062 219° Southwest 431 496 23,100 -3,524 Descending FlightAware ADS-B
Mon 06:31:36 PM 30.5324 -94.0516 219° Southwest 419 482 21,200 -2,806 Descending FlightAware ADS-B
Mon 06:32:06 PM 30.4875 -94.0932 219° Southwest 409 471 20,200 -2,000 Descending FlightAware ADS-B
Mon 06:32:36 PM 30.4439 -94.1342 219° Southwest 399 459 19,200 -2,400 Descending FlightAware ADS-B
Mon 06:33:06 PM 30.4004 -94.1746 219° Southwest 399 459 17,800 -2,557 Descending FlightAware ADS-B
Mon 06:33:37 PM 30.3573 -94.2148 219° Southwest 394 453 16,600 -2,318 Descending FlightAware ADS-B
Mon 06:33:50 PM 30.3377 -94.2331 219° Southwest 390 449 16,100 -2,500 Descending FlightAware ADS-B
Mon 06:34:01 PM 30.3237 -94.2486 224° Southwest 385 443 15,600 -2,571 Descending FlightAware ADS-B
Mon 06:34:11 PM 30.3135 -94.2653 235° Southwest 382 440 15,200 -2,093 Descending FlightAware ADS-B
Mon 06:34:44 PM 30.2866 -94.3229 242° Southwest 372 428 14,100 -2,308 Descending FlightAware ADS-B
Mon 06:35:16 PM 30.2598 -94.3768 240° Southwest 356 410 12,700 -2,323 Descending FlightAware ADS-B
Mon 06:35:46 PM 30.2361 -94.4246 240° Southwest 323 372 11,700 -1,548 Descending FlightAware ADS-B
Mon 06:36:18 PM 30.2135 -94.4703 240° Southwest 304 350 11,100 -968 Descending FlightAware ADS-B
Mon 06:36:48 PM 30.1933 -94.5113 240° Southwest 283 326 10,700 -1,065 Descending FlightAware ADS-B
Mon 06:37:20 PM 30.1734 -94.5516 240° Southwest 276 318 10,000 -1,467 Descending FlightAware ADS-B
Mon 06:37:33 PM 30.1650 -94.5691 241° Southwest 275 316 9,600 -1,800 Descending FlightAware ADS-B
Mon 06:37:40 PM 30.1609 -94.5786 243° Southwest 276 318 9,400 -1,412 Descending FlightAware ADS-B
Mon 06:37:50 PM 30.1561 -94.5910 246° West 274 315 9,200 -1,200 Descending FlightAware ADS-B
Mon 06:38:05 PM 30.1483 -94.6112 246° West 271 312 8,900 -1,600 Descending FlightAware ADS-B
Mon 06:38:20 PM 30.1404 -94.6312 245° Southwest 271 312 8,400 -1,548 Descending FlightAware ADS-B
Mon 06:38:36 PM 30.1322 -94.6516 245° Southwest 268 308 8,100 -774 Descending FlightAware ADS-B
Mon 06:38:51 PM 30.1245 -94.6709 245° Southwest 259 298 8,000 -200 Descending FlightAware ADS-B
Mon 06:39:06 PM 30.1170 -94.6900 246° West 255 293 8,000  Level FlightAware ADS-B
Mon 06:39:22 PM 30.1095 -94.7089 245° Southwest 253 291 8,000 -194 Level FlightAware ADS-B
Mon 06:39:37 PM 30.1020 -94.7277 245° Southwest 253 291 7,900 -800 Descending FlightAware ADS-B
Mon 06:39:52 PM 30.0945 -94.7464 245° Southwest 253 291 7,600 -1,313 Descending FlightAware ADS-B
Mon 06:40:09 PM 30.0862 -94.7666 245° Southwest 255 293 7,200 -1,500 Descending FlightAware ADS-B
Mon 06:40:24 PM 30.0783 -94.7859 245° Southwest 255 293 6,800 -1,548 Descending FlightAware ADS-B
Mon 06:40:40 PM 30.0706 -94.8047 245° Southwest 256 295 6,400 -1,500 Descending FlightAware ADS-B
Mon 06:40:52 PM 30.0643 -94.8204 245° Southwest 255 293 6,100 -889 Descending FlightAware ADS-B
Mon 06:41:07 PM 30.0568 -94.8389 245° Southwest 253 291 6,000 -194 Descending FlightAware ADS-B
Mon 06:41:23 PM 30.0491 -94.8588 246° West 256 295 6,000  Level FlightAware ADS-B
Mon 06:41:39 PM 30.0415 -94.8780 245° Southwest 255 293 6,000  Level FlightAware ADS-B
Mon 06:41:55 PM 30.0338 -94.8974 245° Southwest 253 291 6,000  Level FlightAware ADS-B
Mon 06:42:10 PM 30.0262 -94.9160 245° Southwest 245 282 6,000  Level FlightAware ADS-B
Mon 06:42:26 PM 30.0189 -94.9339 245° Southwest 239 275 6,000 -400 Level FlightAware ADS-B
Mon 06:42:40 PM 30.0121 -94.9507 245° Southwest 240 276 5,800 -923 Descending FlightAware ADS-B
Mon 06:42:52 PM 30.0064 -94.9646 245° Southwest 242 278 5,600 -1,111 Descending FlightAware ADS-B
Mon 06:43:07 PM 29.9991 -94.9823 245° Southwest 238 274 5,300 -1,143 Descending FlightAware ADS-B
Mon 06:43:13 PM 29.9967 -94.9889 247° West 234 269 5,200 -1,333 Descending FlightAware ADS-B
Mon 06:43:16 PM 29.9955 -94.9927 250° West 233 268 5,100 -1,714 Descending FlightAware ADS-B
Mon 06:43:20 PM 29.9943 -94.9975 254° West 234 269 5,000 -2,250 Descending FlightAware ADS-B
Mon 06:43:24 PM 29.9934 -95.0022 258° West 236 272 4,800 -2,250 Descending FlightAware ADS-B
Mon 06:43:28 PM 29.9929 -95.0075 264° West 236 272 4,700 -750 Descending FlightAware ADS-B
Mon 06:43:32 PM 29.9927 -95.0118 267° West 234 269 4,700 -667 Level FlightAware ADS-B
Mon 06:43:37 PM 29.9928 -95.0176 271° West 232 267 4,600 -947 Descending FlightAware ADS-B
Mon 06:43:51 PM 29.9934 -95.0350 272° West 224 258 4,400 -720 Descending FlightAware ADS-B
Mon 06:44:02 PM 29.9936 -95.0476 271° West 220 253 4,300 -1,000 Descending FlightAware ADS-B
Mon 06:44:15 PM 29.9936 -95.0627 270° West 219 252 4,000 -1,500 Descending FlightAware ADS-B
Mon 06:44:30 PM 29.9935 -95.0810 270° West 221 254 3,600 -1,448 Descending FlightAware ADS-B
Mon 06:44:44 PM 29.9935 -95.0977 270° West 220 253 3,300 -1,034 Descending FlightAware ADS-B
Mon 06:44:59 PM 29.9935 -95.1153 270° West 216 249 3,100 -581 Descending FlightAware ADS-B
Mon 06:45:15 PM 29.9935 -95.1324 270° West 203 234 3,000 -300 Descending FlightAware ADS-B
Mon 06:45:19 PM 29.9934 -95.1365 268° West 199 229 3,000  Level FlightAware ADS-B
Mon 06:45:27 PM 29.9933 -95.1454 269° West 194 223 3,000 -400 Level FlightAware ADS-B
Mon 06:45:34 PM 29.9932 -95.1520 269° West 194 223 2,900 -857 Descending FlightAware ADS-B
Mon 06:45:41 PM 29.9935 -95.1595 273° West 196 226 2,800 -1,091 Descending FlightAware ADS-B
Mon 06:45:45 PM 29.9937 -95.1638 273° West 195 224 2,700 -1,091 Descending FlightAware ADS-B
Mon 06:45:52 PM 29.9937 -95.1713 270° West 193 222 2,600 -1,000 Descending FlightAware ADS-B
Mon 06:46:15 PM 29.9935 -95.1949 269° West 193 222 2,200 -973 Descending FlightAware ADS-B
Mon 06:46:29 PM 29.9934 -95.2091 270° West 191 220 2,000 -1,000 Descending FlightAware ADS-B
Mon 06:46:45 PM 29.9935 -95.2253 270° West 185 213 1,700 -938 Descending FlightAware ADS-B
Mon 06:47:01 PM 29.9935 -95.2391 270° West 162 186 1,500 -889 Descending FlightAware ADS-B
Mon 06:47:12 PM 29.9935 -95.2489 270° West 158 182 1,300 -889 Descending FlightAware ADS-B
Mon 06:47:28 PM 29.9935 -95.2623 270° West 162 186 1,100 -750 Descending FlightAware ADS-B
Mon 06:47:36 PM 29.9935 -95.2693 270° West 162 186 1,000 -750 Descending FlightAware ADS-B
Mon 06:47:44 PM 29.9935 -95.2758 270° West 162 186 900 -818 Descending FlightAware ADS-B
Mon 06:47:58 PM 29.9935 -95.2884 270° West 160 184 700 -889 Descending FlightAware ADS-B
Mon 06:48:11 PM 29.9935 -95.2996 270° West 158 182 500 -783 Descending FlightAware ADS-B
Mon 06:48:21 PM 29.9935 -95.3072 270° West 159 183 400 -706 Descending FlightAware ADS-B
Mon 06:48:28 PM 29.9934 -95.3139 269° West 161 185 300 -818 Descending FlightAware ADS-B
Mon 06:48:43 PM 29.9935 -95.3263 271° West 161 185 100 -800 Descending FlightAware ADS-B

Login

Don't have an account? Register now (free) for customized features, flight alerts, and more!